Impacts TAF Board
For situational awareness. Not to be used for flight planning purposes.
IDs:

KSLC - Salt Lake City Intl, UT, US

Issued at 0200 UTC 12 Dec 2018
Updated at 0347 UTC 12 Dec 2018
Potential Impact None Slight Moderate High
Time0254Z 12/04Z 12/05Z 12/06Z 12/07Z 12/08Z 12/09Z 12/10Z 12/11Z 12/12Z 12/13Z 12/14Z 12/15Z 12/16Z>>
Type OBS PRVL PRVL PRVL PRVL PRVL PRVL PRVL PRVL PRVL PRVL PRVL PRVL PRVL
VIS 7 6 6 6 6 6 >6 >6 >6 >6 >6 >6 1 1
CIG 20 20 20 20 20 20 80 80 80 80 80 80 10 10
Cover OVC OVC OVC OVC OVC OVC BKN BKN BKN BKN BKN BKN OVC OVC
FltCat MVFR MVFR MVFR MVFR MVFR MVFR VFR VFR VFR VFR VFR VFR IFR IFR
WX -- HZ HZ HZ HZ HZ -- -- -- -- -- -- -SN BR -SN BR
WDir 160 150 150 150 150 150 160 160 160 160 160 160 310 310
WSpd 5 5 5 5 5 5 10 10 10 10 10 10 12 12
WGst -- -- -- -- -- -- -- -- -- -- -- -- 19 19
Raw TAF
KSLC 120200Z 1202/1306 15005KT 6SM HZ OVC020
  FM120900 16010KT P6SM FEW020 BKN080
  FM121500 31012G19KT 1SM -SN BR SCT006 OVC010
  FM121800 33014G22KT 3SM -SHSN BR SCT010 OVC020
  FM122200 32016KT P6SM VCSH SCT020 BKN040
  FM130100 35007KT P6SM SCT070 SCT120


Raw METAR
KSLC 120254Z 16005KT 7SM OVC020 00/M03 A3022 RMK AO2 SLP245 T00001033 58009
KSLC 120154Z 00000KT 7SM OVC020 00/M04 A3023 RMK AO2 SLP251 T00001039
KSLC 120054Z 18005KT 7SM OVC020 00/M03 A3023 RMK AO2 SLP251 T00001033

METAR Board
Radar Display
Forecast Discussion
For situational awareness. Not to be used for flight planning purposes.